Time;durP1;ratioP1;P1;durP2;ratioP2;P2;SDS_P1;SDS_P2;PMS_P1;PMS_P2;Temp;Humidity;BMP_temperature;BMP_pressure;BME280_temperature;BME280_humidity;BME280_pressure;Samples;Min_cycle;Max_cycle;Signal;HPM_P1;HPM_P2
2021/03/18 00:00:51;;;;;;;2.50;1.20;;;;;;;;;;5071975;28;20440;-72
2021/03/18 00:03:18;;;;;;;1.40;1.30;;;;;;;;;;5074644;28;20409;-71
2021/03/18 00:05:44;;;;;;;0.80;0.53;;;;;;;;;;5074697;28;20405;-71
2021/03/18 00:08:10;;;;;;;1.37;0.77;;;;;;;;;;5063070;28;20436;-71
2021/03/18 00:10:36;;;;;;;1.67;1.20;;;;;;;;;;5054532;28;20428;-71
2021/03/18 00:13:03;;;;;;;0.80;0.70;;;;;;;;;;5054581;28;20480;-71
2021/03/18 00:15:30;;;;;;;1.30;0.80;;;;;;;;;;5054461;28;20398;-70
2021/03/18 00:17:56;;;;;;;1.93;1.30;;;;;;;;;;5054782;28;20413;-70
2021/03/18 00:20:22;;;;;;;1.00;0.90;;;;;;;;;;5036501;28;20433;-70
2021/03/18 00:22:49;;;;;;;1.00;0.73;;;;;;;;;;5054367;28;20445;-71
2021/03/18 00:25:16;;;;;;;1.20;1.10;;;;;;;;;;5054741;28;20401;-72
2021/03/18 00:27:43;;;;;;;4.43;4.13;;;;;;;;;;5074154;28;20480;-71
2021/03/18 00:30:10;;;;;;;0.90;0.70;;;;;;;;;;5056294;28;20441;-71
2021/03/18 00:32:37;;;;;;;1.73;1.63;;;;;;;;;;5056190;28;20880;-71
2021/03/18 00:35:04;;;;;;;0.93;0.57;;;;;;;;;;5074275;28;20892;-71
2021/03/18 00:37:30;;;;;;;1.87;0.90;;;;;;;;;;5059052;28;20415;-71
2021/03/18 00:39:57;;;;;;;0.90;0.70;;;;;;;;;;5053867;28;20438;-71
2021/03/18 00:42:23;;;;;;;3.37;1.17;;;;;;;;;;5053647;28;20846;-71
2021/03/18 00:44:49;;;;;;;0.70;0.50;;;;;;;;;;5053871;28;20441;-71
2021/03/18 00:47:15;;;;;;;1.00;0.70;;;;;;;;;;5035815;28;20488;-71
2021/03/18 00:49:41;;;;;;;3.07;0.73;;;;;;;;;;5053684;28;20420;-71
2021/03/18 00:52:07;;;;;;;1.47;1.03;;;;;;;;;;5035972;28;20397;-71
2021/03/18 00:54:33;;;;;;;1.57;0.60;;;;;;;;;;5053705;28;20402;-71
2021/03/18 00:56:59;;;;;;;1.83;1.10;;;;;;;;;;5053675;28;20435;-71
2021/03/18 00:59:25;;;;;;;1.27;1.13;;;;;;;;;;5053501;28;20429;-71
2021/03/18 01:01:51;;;;;;;0.70;0.47;;;;;;;;;;5053244;28;20438;-71
2021/03/18 01:04:17;;;;;;;3.90;2.03;;;;;;;;;;5035612;28;20422;-71
2021/03/18 01:06:43;;;;;;;1.13;1.03;;;;;;;;;;5053401;28;20991;-71
2021/03/18 01:09:09;;;;;;;0.90;0.60;;;;;;;;;;5053283;28;20440;-71
2021/03/18 01:11:37;;;;;;;5.80;1.93;;;;;;;;;;5034617;28;20800;-71
2021/03/18 01:14:05;;;;;;;1.10;0.80;;;;;;;;;;5053560;28;20444;-71
2021/03/18 01:16:36;;;;;;;0.90;0.67;;;;;;;;;;5053126;28;20405;-70
2021/03/18 01:19:07;;;;;;;0.80;0.63;;;;;;;;;;5053278;28;20446;-70
2021/03/18 01:21:38;;;;;;;1.07;0.83;;;;;;;;;;5034935;28;20447;-70
2021/03/18 01:24:07;;;;;;;2.00;1.90;;;;;;;;;;5035394;28;20504;-70
2021/03/18 01:26:33;;;;;;;1.83;1.73;;;;;;;;;;5064218;28;20461;-70
2021/03/18 01:29:00;;;;;;;0.80;0.60;;;;;;;;;;5055330;28;20474;-70
2021/03/18 01:31:26;;;;;;;1.37;1.27;;;;;;;;;;5072738;28;20925;-70
2021/03/18 01:33:52;;;;;;;0.70;0.50;;;;;;;;;;5073002;28;20400;-70
2021/03/18 01:36:18;;;;;;;1.93;1.03;;;;;;;;;;5067728;28;20899;-70
2021/03/18 01:38:45;;;;;;;0.80;0.70;;;;;;;;;;5052854;28;20405;-70
2021/03/18 01:41:11;;;;;;;2.40;1.40;;;;;;;;;;5052499;28;20508;-70
2021/03/18 01:43:40;;;;;;;5.87;5.30;;;;;;;;;;5052927;28;20412;-71
2021/03/18 01:46:06;;;;;;;0.80;0.60;;;;;;;;;;5052917;28;20876;-71
2021/03/18 01:48:32;;;;;;;2.00;1.83;;;;;;;;;;5052987;28;20848;-71
2021/03/18 01:51:00;;;;;;;2.00;1.80;;;;;;;;;;5052321;28;20421;-72
2021/03/18 01:53:26;;;;;;;1.10;1.00;;;;;;;;;;5052587;28;20400;-71
2021/03/18 01:55:53;;;;;;;0.93;0.60;;;;;;;;;;5052465;28;20951;-70
2021/03/18 01:58:20;;;;;;;1.10;0.80;;;;;;;;;;5052748;28;20917;-71
2021/03/18 02:00:47;;;;;;;1.73;0.70;;;;;;;;;;5052229;28;20479;-71
2021/03/18 02:03:13;;;;;;;1.30;0.73;;;;;;;;;;5052401;28;20928;-71
2021/03/18 02:05:42;;;;;;;1.20;1.10;;;;;;;;;;5052209;28;20816;-71
2021/03/18 02:08:08;;;;;;;0.70;0.60;;;;;;;;;;5052494;28;20749;-70
2021/03/18 02:10:35;;;;;;;1.00;0.70;;;;;;;;;;5034178;28;20512;-71
2021/03/18 02:13:02;;;;;;;2.90;1.27;;;;;;;;;;5052055;28;20515;-70
2021/03/18 02:15:29;;;;;;;1.63;1.53;;;;;;;;;;5052214;28;20396;-71
2021/03/18 02:18:17;;;;;;;1.20;0.93;;;;;;;;;;5051994;28;20418;-72
2021/03/18 02:21:01;;;;;;;1.10;0.80;;;;;;;;;;5068350;23;20427;-68
2021/03/18 02:23:27;;;;;;;1.97;1.00;;;;;;;;;;5060604;28;20428;-69
2021/03/18 02:26:11;;;;;;;3.73;3.50;;;;;;;;;;5059392;28;20401;-68
2021/03/18 02:28:56;;;;;;;1.00;0.73;;;;;;;;;;5045023;28;20475;-70
2021/03/18 02:31:33;;;;;;;2.03;1.23;;;;;;;;;;5036149;28;20433;-69
2021/03/18 02:34:03;;;;;;;0.70;0.50;;;;;;;;;;5020215;28;20542;-69
2021/03/18 02:36:50;;;;;;;0.80;0.80;;;;;;;;;;5029089;28;20401;-67
2021/03/18 02:39:21;;;;;;;1.00;0.90;;;;;;;;;;5038232;28;20411;-70
2021/03/18 02:41:51;;;;;;;2.87;2.67;;;;;;;;;;5036822;28;20989;-69
2021/03/18 02:44:19;;;;;;;1.90;0.87;;;;;;;;;;5036911;28;20428;-70
2021/03/18 02:46:45;;;;;;;0.70;0.60;;;;;;;;;;5034762;28;20458;-69
2021/03/18 02:49:13;;;;;;;1.00;0.70;;;;;;;;;;5035203;28;20411;-69
2021/03/18 02:51:41;;;;;;;0.80;0.60;;;;;;;;;;5035664;28;20428;-69
2021/03/18 02:54:08;;;;;;;2.13;0.73;;;;;;;;;;5036666;28;20426;-70
2021/03/18 02:56:37;;;;;;;22.90;21.10;;;;;;;;;;5029562;28;20425;-68
2021/03/18 02:59:04;;;;;;;1.63;0.87;;;;;;;;;;5026493;28;20418;-70
2021/03/18 03:01:31;;;;;;;0.70;0.60;;;;;;;;;;5023962;28;20501;-70
2021/03/18 03:03:57;;;;;;;3.17;0.83;;;;;;;;;;5023397;28;20486;-67
2021/03/18 03:06:23;;;;;;;0.80;0.60;;;;;;;;;;5014276;28;20625;-69
2021/03/18 03:08:50;;;;;;;1.17;0.83;;;;;;;;;;5013875;28;20412;-70
2021/03/18 03:11:19;;;;;;;1.20;1.10;;;;;;;;;;5016766;28;20790;-69
2021/03/18 03:13:46;;;;;;;0.70;0.50;;;;;;;;;;5019823;28;20398;-69
2021/03/18 03:16:14;;;;;;;2.60;1.20;;;;;;;;;;4994400;28;20571;-68
2021/03/18 03:18:41;;;;;;;1.17;1.07;;;;;;;;;;5013077;28;20796;-69
2021/03/18 03:21:08;;;;;;;1.30;0.83;;;;;;;;;;5012722;28;20445;-68
2021/03/18 03:23:34;;;;;;;0.70;0.50;;;;;;;;;;5014145;28;20819;-69
2021/03/18 03:26:01;;;;;;;1.97;1.30;;;;;;;;;;5003811;28;20476;-68
2021/03/18 03:28:28;;;;;;;0.70;0.60;;;;;;;;;;5016825;28;20420;-69
2021/03/18 03:30:56;;;;;;;0.90;0.67;;;;;;;;;;5008968;28;20495;-70
2021/03/18 03:33:21;;;;;;;0.70;0.50;;;;;;;;;;5017420;28;20490;-68
2021/03/18 03:35:48;;;;;;;0.73;0.60;;;;;;;;;;5033025;28;20512;-69
2021/03/18 03:38:14;;;;;;;0.70;0.50;;;;;;;;;;5011955;28;20420;-68
2021/03/18 03:40:40;;;;;;;0.70;0.60;;;;;;;;;;5024045;28;20406;-68
2021/03/18 03:43:06;;;;;;;8.57;7.90;;;;;;;;;;5012507;28;20445;-68
2021/03/18 03:45:33;;;;;;;0.80;0.70;;;;;;;;;;5012352;28;20406;-69
2021/03/18 03:47:59;;;;;;;0.70;0.50;;;;;;;;;;5012621;28;20450;-68
2021/03/18 03:50:25;;;;;;;0.70;0.60;;;;;;;;;;5012545;28;20429;-67
2021/03/18 03:52:59;;;;;;;2.30;1.23;;;;;;;;;;4995851;28;20410;-70
2021/03/18 03:55:44;;;;;;;0.70;0.50;;;;;;;;;;5014297;28;21094;-68
2021/03/18 03:58:22;;;;;;;0.80;0.60;;;;;;;;;;5014770;28;20405;-69
2021/03/18 04:00:48;;;;;;;0.70;0.50;;;;;;;;;;4997556;28;20433;-68
2021/03/18 04:03:14;;;;;;;0.80;0.50;;;;;;;;;;4997777;28;20432;-69
2021/03/18 04:05:42;;;;;;;0.70;0.50;;;;;;;;;;5015257;28;20402;-69
2021/03/18 04:08:10;;;;;;;0.93;0.83;;;;;;;;;;5030603;28;20464;-69
2021/03/18 04:10:36;;;;;;;0.70;0.50;;;;;;;;;;5028395;28;20473;-67
2021/03/18 04:13:03;;;;;;;0.90;0.80;;;;;;;;;;5029059;28;20481;-68
2021/03/18 04:15:32;;;;;;;1.33;0.60;;;;;;;;;;5026285;28;20849;-69
2021/03/18 04:17:59;;;;;;;0.70;0.40;;;;;;;;;;5026799;28;20476;-69
2021/03/18 04:20:26;;;;;;;0.70;0.50;;;;;;;;;;5025852;28;20695;-68
2021/03/18 04:22:53;;;;;;;1.77;0.80;;;;;;;;;;5026123;28;20437;-67
2021/03/18 04:25:20;;;;;;;0.70;0.40;;;;;;;;;;5021402;28;20404;-69
2021/03/18 04:27:47;;;;;;;1.10;0.60;;;;;;;;;;5028308;28;20838;-69
2021/03/18 04:30:14;;;;;;;1.30;1.03;;;;;;;;;;5033648;28;20400;-69
2021/03/18 04:32:41;;;;;;;1.00;0.80;;;;;;;;;;5034114;28;20443;-68
2021/03/18 04:35:09;;;;;;;0.70;0.60;;;;;;;;;;5017291;28;20446;-67
2021/03/18 04:37:35;;;;;;;1.00;0.90;;;;;;;;;;5019252;28;20446;-69
2021/03/18 04:40:02;;;;;;;0.70;0.60;;;;;;;;;;5014632;28;20440;-69
2021/03/18 04:42:28;;;;;;;0.80;0.60;;;;;;;;;;5021601;28;20433;-69
2021/03/18 04:44:54;;;;;;;0.70;0.60;;;;;;;;;;5029355;28;20408;-68
2021/03/18 04:47:20;;;;;;;0.90;0.80;;;;;;;;;;5035135;28;20510;-67
2021/03/18 04:49:50;;;;;;;0.80;0.50;;;;;;;;;;5036821;28;20401;-69
2021/03/18 04:52:17;;;;;;;0.70;0.50;;;;;;;;;;5037485;28;20991;-70
2021/03/18 04:54:43;;;;;;;1.30;0.57;;;;;;;;;;5037353;28;20404;-70
2021/03/18 04:57:10;;;;;;;0.70;0.50;;;;;;;;;;5019049;28;20413;-70
2021/03/18 04:59:36;;;;;;;0.70;0.57;;;;;;;;;;5036488;28;20404;-68
2021/03/18 05:02:03;;;;;;;0.80;0.60;;;;;;;;;;5017659;28;20437;-68
2021/03/18 05:04:30;;;;;;;0.70;0.50;;;;;;;;;;5027944;28;20400;-68
2021/03/18 05:06:56;;;;;;;0.70;0.60;;;;;;;;;;5036056;28;20451;-69
2021/03/18 05:09:26;;;;;;;1.43;1.33;;;;;;;;;;5017589;28;20908;-69
2021/03/18 05:11:53;;;;;;;1.23;1.13;;;;;;;;;;5035401;28;20429;-68
2021/03/18 05:14:19;;;;;;;1.03;0.80;;;;;;;;;;5035943;28;20407;-69
2021/03/18 05:16:45;;;;;;;0.70;0.60;;;;;;;;;;5036166;28;20404;-68
2021/03/18 05:19:13;;;;;;;0.70;0.50;;;;;;;;;;5036348;28;20752;-68
2021/03/18 05:21:42;;;;;;;0.70;0.47;;;;;;;;;;5036628;28;21098;-69
2021/03/18 05:24:10;;;;;;;0.70;0.40;;;;;;;;;;5036424;28;20410;-69
2021/03/18 05:26:36;;;;;;;1.10;0.73;;;;;;;;;;5032481;28;20460;-70
2021/03/18 05:29:01;;;;;;;0.70;0.50;;;;;;;;;;5035238;28;20963;-69
2021/03/18 05:31:27;;;;;;;0.70;0.50;;;;;;;;;;5035429;28;20424;-68
2021/03/18 05:33:53;;;;;;;0.80;0.80;;;;;;;;;;5036336;28;20401;-68
2021/03/18 05:36:20;;;;;;;0.90;0.63;;;;;;;;;;5031717;28;20416;-68
2021/03/18 05:38:46;;;;;;;0.70;0.60;;;;;;;;;;5000421;28;20409;-68
2021/03/18 05:41:12;;;;;;;1.33;0.60;;;;;;;;;;5030428;28;20452;-71
2021/03/18 05:43:38;;;;;;;0.80;0.80;;;;;;;;;;5038625;28;20414;-68
2021/03/18 05:46:04;;;;;;;1.37;0.70;;;;;;;;;;5019539;28;20478;-69
2021/03/18 05:48:30;;;;;;;3.80;0.60;;;;;;;;;;5038249;28;20443;-68
2021/03/18 05:50:57;;;;;;;0.70;0.50;;;;;;;;;;5029776;28;20535;-69
2021/03/18 05:53:23;;;;;;;1.43;0.80;;;;;;;;;;5031486;28;21034;-71
2021/03/18 05:55:53;;;;;;;1.17;1.07;;;;;;;;;;5031943;28;20425;-69
2021/03/18 05:58:22;;;;;;;1.47;0.70;;;;;;;;;;5011603;28;20895;-69
2021/03/18 06:00:49;;;;;;;0.70;0.40;;;;;;;;;;5031459;28;20496;-69
2021/03/18 06:03:15;;;;;;;1.00;0.63;;;;;;;;;;5036634;28;20421;-67
2021/03/18 06:05:41;;;;;;;1.90;0.80;;;;;;;;;;5028391;28;20892;-68
2021/03/18 06:08:09;;;;;;;8.50;2.10;;;;;;;;;;5029722;28;20874;-68
2021/03/18 06:10:35;;;;;;;0.90;0.77;;;;;;;;;;5032228;28;20403;-67
2021/03/18 06:13:00;;;;;;;0.90;0.90;;;;;;;;;;5033433;28;20463;-69
2021/03/18 06:15:27;;;;;;;1.60;0.80;;;;;;;;;;5035421;28;20403;-69
2021/03/18 06:17:54;;;;;;;1.00;0.73;;;;;;;;;;5035150;28;20431;-68
2021/03/18 06:20:24;;;;;;;0.90;0.60;;;;;;;;;;5017481;28;20404;-68
2021/03/18 06:22:50;;;;;;;2.47;2.27;;;;;;;;;;5035426;28;20556;-68
2021/03/18 06:25:24;;;;;;;0.70;0.50;;;;;;;;;;5034284;28;20764;-67
2021/03/18 06:28:09;;;;;;;2.03;0.63;;;;;;;;;;5006283;28;20488;-67
2021/03/18 06:30:35;;;;;;;0.80;0.80;;;;;;;;;;5032835;28;20472;-68
2021/03/18 06:33:16;;;;;;;1.17;0.60;;;;;;;;;;5035197;28;20394;-68
2021/03/18 06:35:42;;;;;;;0.77;0.67;;;;;;;;;;5032741;28;20411;-70
2021/03/18 06:38:08;;;;;;;1.57;1.03;;;;;;;;;;5037099;28;20434;-67
2021/03/18 06:40:38;;;;;;;2.40;1.73;;;;;;;;;;5025347;28;20903;-66
2021/03/18 06:43:05;;;;;;;0.70;0.50;;;;;;;;;;5013895;28;20452;-68
2021/03/18 06:45:35;;;;;;;1.30;1.20;;;;;;;;;;5015116;28;20741;-66
2021/03/18 06:48:02;;;;;;;1.30;0.83;;;;;;;;;;5014011;28;20453;-67
2021/03/18 06:50:36;;;;;;;0.80;0.60;;;;;;;;;;5013722;28;20409;-68
2021/03/18 06:53:02;;;;;;;1.03;0.50;;;;;;;;;;5013697;28;20404;-67
2021/03/18 06:55:30;;;;;;;0.70;0.50;;;;;;;;;;5013780;28;20398;-69
2021/03/18 06:58:15;;;;;;;1.77;1.33;;;;;;;;;;4996302;28;20411;-68
2021/03/18 07:00:42;;;;;;;7.80;1.00;;;;;;;;;;5014798;28;20459;-68
2021/03/18 07:03:09;;;;;;;1.30;1.20;;;;;;;;;;5014723;28;20463;-69
2021/03/18 07:05:39;;;;;;;1.17;1.10;;;;;;;;;;5015436;28;20407;-69
2021/03/18 07:08:06;;;;;;;1.33;1.23;;;;;;;;;;5015788;28;20469;-68
2021/03/18 07:10:35;;;;;;;7.40;1.83;;;;;;;;;;5014936;28;20412;-68
2021/03/18 07:13:18;;;;;;;0.70;0.50;;;;;;;;;;4997566;28;20410;-69
2021/03/18 07:15:44;;;;;;;0.80;0.60;;;;;;;;;;5023907;28;20482;-67
2021/03/18 07:18:11;;;;;;;0.97;0.60;;;;;;;;;;5022184;28;20886;-68
2021/03/18 07:20:37;;;;;;;0.70;0.40;;;;;;;;;;5021628;28;20439;-71
2021/03/18 07:23:11;;;;;;;0.70;0.50;;;;;;;;;;5020339;28;20405;-70
2021/03/18 07:25:44;;;;;;;0.80;0.73;;;;;;;;;;5027967;28;20410;-68
2021/03/18 07:28:10;;;;;;;1.23;0.60;;;;;;;;;;5026237;28;20410;-69
2021/03/18 07:30:37;;;;;;;0.73;0.60;;;;;;;;;;5024826;28;20412;-69
2021/03/18 07:33:03;;;;;;;3.90;1.20;;;;;;;;;;5027838;28;20412;-68
2021/03/18 07:35:30;;;;;;;0.70;0.50;;;;;;;;;;5024627;28;21068;-68
2021/03/18 07:37:56;;;;;;;1.17;1.07;;;;;;;;;;5004529;28;20399;-70
2021/03/18 07:40:22;;;;;;;0.87;0.50;;;;;;;;;;5011153;28;20508;-69
2021/03/18 07:42:52;;;;;;;0.70;0.40;;;;;;;;;;5023344;28;20434;-68
2021/03/18 07:45:19;;;;;;;0.70;0.57;;;;;;;;;;5024079;28;20533;-70
2021/03/18 07:47:46;;;;;;;2.30;1.23;;;;;;;;;;5028503;28;20489;-69
2021/03/18 07:50:13;;;;;;;1.33;1.23;;;;;;;;;;5004338;28;20426;-69
2021/03/18 07:52:40;;;;;;;1.63;0.60;;;;;;;;;;5030664;28;20784;-69
2021/03/18 07:55:08;;;;;;;1.57;0.70;;;;;;;;;;5030994;28;20429;-70
2021/03/18 07:57:40;;;;;;;0.80;0.70;;;;;;;;;;5013716;28;20514;-71
2021/03/18 08:00:13;;;;;;;2.40;1.80;;;;;;;;;;5031769;28;20463;-68
2021/03/18 08:02:39;;;;;;;1.10;0.50;;;;;;;;;;5027030;28;20450;-68
2021/03/18 08:05:06;;;;;;;3.33;0.70;;;;;;;;;;5009473;28;20413;-68
2021/03/18 08:07:38;;;;;;;0.80;0.60;;;;;;;;;;5031672;28;20936;-70
2021/03/18 08:10:05;;;;;;;1.00;0.70;;;;;;;;;;5031041;28;20424;-71
2021/03/18 08:12:45;;;;;;;0.83;0.60;;;;;;;;;;5031538;28;20427;-69
2021/03/18 08:15:18;;;;;;;0.90;0.60;;;;;;;;;;5027663;28;20439;-69
2021/03/18 08:17:44;;;;;;;0.70;0.50;;;;;;;;;;5022709;28;20503;-69
2021/03/18 08:20:10;;;;;;;0.70;0.40;;;;;;;;;;5005042;28;20463;-70
2021/03/18 08:22:36;;;;;;;0.90;0.70;;;;;;;;;;5050167;23;20518;-70
2021/03/18 08:25:21;;;;;;;2.20;0.77;;;;;;;;;;5062778;28;20407;-70
2021/03/18 08:27:47;;;;;;;0.80;0.77;;;;;;;;;;5067823;28;20477;-74
2021/03/18 08:30:26;;;;;;;0.80;0.60;;;;;;;;;;5063573;28;20509;-71
2021/03/18 08:32:52;;;;;;;1.30;1.20;;;;;;;;;;5048517;28;20432;-72
2021/03/18 08:35:28;;;;;;;1.37;1.23;;;;;;;;;;5048657;28;20400;-70
2021/03/18 08:37:55;;;;;;;0.80;0.70;;;;;;;;;;5047541;28;20785;-71
2021/03/18 08:40:22;;;;;;;0.90;0.60;;;;;;;;;;5047423;28;20423;-72
2021/03/18 08:42:49;;;;;;;1.17;0.97;;;;;;;;;;5051445;28;21128;-72
2021/03/18 08:45:18;;;;;;;0.90;0.90;;;;;;;;;;5050211;28;20820;-72
2021/03/18 08:47:48;;;;;;;30.57;3.80;;;;;;;;;;5044456;28;20522;-74
2021/03/18 08:50:34;;;;;;;0.70;0.50;;;;;;;;;;5037601;28;20434;-74
2021/03/18 08:53:01;;;;;;;0.70;0.50;;;;;;;;;;5044799;28;20498;-74
2021/03/18 08:55:33;;;;;;;3.13;1.73;;;;;;;;;;5053700;28;20436;-72
2021/03/18 08:57:59;;;;;;;0.70;0.50;;;;;;;;;;5053962;28;20925;-74
2021/03/18 09:00:25;;;;;;;0.80;0.60;;;;;;;;;;5052856;28;20746;-72
2021/03/18 09:02:51;;;;;;;1.83;0.83;;;;;;;;;;5052832;28;20422;-74
2021/03/18 09:05:21;;;;;;;0.80;0.77;;;;;;;;;;5035439;28;20392;-74
2021/03/18 09:07:54;;;;;;;0.70;0.50;;;;;;;;;;5050906;28;20817;-74
2021/03/18 09:10:23;;;;;;;1.00;0.73;;;;;;;;;;5053137;28;20419;-74
2021/03/18 09:12:51;;;;;;;1.60;1.30;;;;;;;;;;5051214;28;20439;-74
2021/03/18 09:15:18;;;;;;;3.00;1.20;;;;;;;;;;5046044;28;20470;-73
2021/03/18 09:17:45;;;;;;;1.00;0.73;;;;;;;;;;5029658;28;20882;-74
2021/03/18 09:20:13;;;;;;;1.00;0.60;;;;;;;;;;5048634;28;20491;-74
2021/03/18 09:22:39;;;;;;;0.70;0.50;;;;;;;;;;5025080;28;20450;-74
2021/03/18 09:25:06;;;;;;;0.70;0.50;;;;;;;;;;5045784;28;20502;-76
2021/03/18 09:27:36;;;;;;;1.00;0.70;;;;;;;;;;5038298;28;20462;-73
2021/03/18 09:30:16;;;;;;;2.70;1.10;;;;;;;;;;5045804;28;20916;-71
2021/03/18 09:32:42;;;;;;;1.23;1.13;;;;;;;;;;5045662;28;20561;-76
2021/03/18 09:35:10;;;;;;;0.90;0.80;;;;;;;;;;5044184;28;20435;-76
2021/03/18 09:37:38;;;;;;;1.50;0.67;;;;;;;;;;5044157;28;20783;-74
2021/03/18 09:40:05;;;;;;;1.63;1.23;;;;;;;;;;5030403;28;21076;-74
2021/03/18 09:42:31;;;;;;;1.37;0.80;;;;;;;;;;5048976;28;20437;-74
2021/03/18 09:44:59;;;;;;;0.70;0.40;;;;;;;;;;5047822;28;20465;-74
2021/03/18 09:47:25;;;;;;;0.70;0.60;;;;;;;;;;5041906;28;20517;-74
2021/03/18 09:49:52;;;;;;;0.70;0.60;;;;;;;;;;5046397;28;20928;-74
2021/03/18 09:52:22;;;;;;;0.70;0.50;;;;;;;;;;5045140;28;20444;-73
2021/03/18 09:54:49;;;;;;;1.00;0.87;;;;;;;;;;5027625;28;20396;-72
2021/03/18 09:57:15;;;;;;;1.23;0.90;;;;;;;;;;5044207;28;20407;-72
2021/03/18 09:59:41;;;;;;;2.13;1.10;;;;;;;;;;5061767;28;20398;-72
2021/03/18 10:02:07;;;;;;;0.70;0.50;;;;;;;;;;5035725;28;20444;-72
2021/03/18 10:04:40;;;;;;;0.70;0.63;;;;;;;;;;5051377;28;20407;-73
2021/03/18 10:07:06;;;;;;;0.70;0.50;;;;;;;;;;5049188;28;20470;-73
2021/03/18 10:09:33;;;;;;;1.00;0.67;;;;;;;;;;5045110;28;20410;-73
2021/03/18 10:12:02;;;;;;;1.07;0.70;;;;;;;;;;5044918;28;20420;-73
2021/03/18 10:14:31;;;;;;;0.70;0.50;;;;;;;;;;5045071;28;20408;-73
2021/03/18 10:16:57;;;;;;;1.47;1.37;;;;;;;;;;5050306;28;20419;-73
2021/03/18 10:19:28;;;;;;;1.20;0.60;;;;;;;;;;5050688;28;20407;-73
2021/03/18 10:21:54;;;;;;;0.80;0.53;;;;;;;;;;5050353;28;20844;-74
2021/03/18 10:24:20;;;;;;;0.80;0.70;;;;;;;;;;5054023;28;20407;-75
2021/03/18 10:26:48;;;;;;;0.93;0.70;;;;;;;;;;5050405;28;20897;-74
2021/03/18 10:29:14;;;;;;;0.70;0.40;;;;;;;;;;5052499;28;20905;-73
2021/03/18 10:31:41;;;;;;;1.40;0.80;;;;;;;;;;5052544;28;20909;-72
2021/03/18 10:34:20;;;;;;;2.70;0.70;;;;;;;;;;5051803;28;20411;-73
2021/03/18 10:36:46;;;;;;;0.80;0.60;;;;;;;;;;5043605;28;20173;-74
2021/03/18 10:39:13;;;;;;;4.43;0.97;;;;;;;;;;5037651;28;20414;-74
2021/03/18 10:41:53;;;;;;;2.43;2.23;;;;;;;;;;5052793;28;20397;-73
2021/03/18 10:44:19;;;;;;;1.23;1.13;;;;;;;;;;5033348;28;20439;-73
2021/03/18 10:46:45;;;;;;;0.70;0.40;;;;;;;;;;5051855;28;20445;-73
2021/03/18 10:49:12;;;;;;;1.10;0.70;;;;;;;;;;5050286;28;20473;-63
2021/03/18 10:51:46;;;;;;;2.20;1.63;;;;;;;;;;5052825;28;20443;-73
2021/03/18 10:54:19;;;;;;;1.20;0.70;;;;;;;;;;5043049;28;20434;-73
2021/03/18 10:56:45;;;;;;;0.70;0.50;;;;;;;;;;5044728;28;20450;-74
2021/03/18 10:59:15;;;;;;;0.73;0.60;;;;;;;;;;5047367;28;20465;-73
2021/03/18 11:01:42;;;;;;;1.87;1.00;;;;;;;;;;5050493;28;20466;-73
2021/03/18 11:04:08;;;;;;;0.80;0.50;;;;;;;;;;5045269;28;20408;-73
2021/03/18 11:06:45;;;;;;;0.90;0.73;;;;;;;;;;5048763;28;20941;-73
2021/03/18 11:09:12;;;;;;;0.80;0.70;;;;;;;;;;5030994;28;20419;-74
2021/03/18 11:11:38;;;;;;;0.87;0.67;;;;;;;;;;5044046;28;20494;-73
2021/03/18 11:14:06;;;;;;;1.00;0.70;;;;;;;;;;5049482;28;20414;-74
2021/03/18 11:16:32;;;;;;;0.70;0.50;;;;;;;;;;5048242;28;20536;-74
2021/03/18 11:19:03;;;;;;;0.80;0.73;;;;;;;;;;5040374;28;20374;-73
2021/03/18 11:21:30;;;;;;;0.83;0.60;;;;;;;;;;5040920;28;21037;-74
2021/03/18 11:24:04;;;;;;;0.80;0.70;;;;;;;;;;5042257;28;20431;-73
2021/03/18 11:26:30;;;;;;;0.70;0.50;;;;;;;;;;5050185;28;20447;-72
2021/03/18 11:28:58;;;;;;;0.70;0.50;;;;;;;;;;5052235;28;20437;-72
2021/03/18 11:31:25;;;;;;;0.83;0.80;;;;;;;;;;5049910;28;20529;-70
2021/03/18 11:33:51;;;;;;;0.80;0.80;;;;;;;;;;5047465;28;20406;-72
2021/03/18 11:36:18;;;;;;;0.80;0.50;;;;;;;;;;5045327;28;20386;-73
2021/03/18 11:38:43;;;;;;;1.47;1.37;;;;;;;;;;5049880;28;20373;-73
2021/03/18 11:41:09;;;;;;;2.63;0.70;;;;;;;;;;5040787;28;20370;-71
2021/03/18 11:43:36;;;;;;;0.87;0.60;;;;;;;;;;5046915;28;20482;-74
2021/03/18 11:46:02;;;;;;;1.90;1.77;;;;;;;;;;5045907;28;20371;-73
2021/03/18 11:48:28;;;;;;;0.90;0.80;;;;;;;;;;5043174;28;20399;-75
2021/03/18 11:50:54;;;;;;;0.90;0.80;;;;;;;;;;5046221;28;20378;-72
2021/03/18 11:53:21;;;;;;;1.33;0.87;;;;;;;;;;5046782;28;20390;-72
2021/03/18 11:55:47;;;;;;;1.10;1.00;;;;;;;;;;5045785;28;20796;-72
2021/03/18 11:58:13;;;;;;;0.80;0.70;;;;;;;;;;5024910;28;20925;-74
2021/03/18 12:00:39;;;;;;;1.37;0.63;;;;;;;;;;5051780;28;20415;-73
2021/03/18 12:03:06;;;;;;;2.73;1.10;;;;;;;;;;5028288;28;20423;-73
2021/03/18 12:05:33;;;;;;;1.17;1.07;;;;;;;;;;5054504;28;20745;-73
2021/03/18 12:07:59;;;;;;;1.40;0.90;;;;;;;;;;5046183;28;20441;-74
2021/03/18 12:10:25;;;;;;;1.20;0.77;;;;;;;;;;5054459;28;21108;-74
2021/03/18 12:12:51;;;;;;;1.40;0.80;;;;;;;;;;5036743;28;21180;-73
2021/03/18 12:15:17;;;;;;;1.53;1.27;;;;;;;;;;5050534;28;20504;-74
2021/03/18 12:17:43;;;;;;;1.30;1.17;;;;;;;;;;5045584;28;20403;-74
2021/03/18 12:20:16;;;;;;;4.63;4.37;;;;;;;;;;5043791;28;21102;-73
2021/03/18 12:22:42;;;;;;;1.03;0.83;;;;;;;;;;5050526;28;20425;-73
2021/03/18 12:25:09;;;;;;;2.27;1.63;;;;;;;;;;5043565;28;20415;-73
2021/03/18 12:27:35;;;;;;;1.00;0.80;;;;;;;;;;5027226;28;20489;-72
2021/03/18 12:30:01;;;;;;;3.47;0.83;;;;;;;;;;5045001;28;20895;-73
2021/03/18 12:32:27;;;;;;;2.33;0.90;;;;;;;;;;5025680;28;20566;-74
2021/03/18 12:34:53;;;;;;;2.10;0.67;;;;;;;;;;5046165;28;20377;-74
2021/03/18 12:37:19;;;;;;;0.80;0.80;;;;;;;;;;5043908;28;20412;-73
2021/03/18 12:39:46;;;;;;;2.73;2.63;;;;;;;;;;5045564;28;20910;-74
2021/03/18 12:42:12;;;;;;;1.00;0.70;;;;;;;;;;5034936;28;20458;-74
2021/03/18 12:44:39;;;;;;;0.93;0.60;;;;;;;;;;5041628;28;20859;-73
2021/03/18 12:47:05;;;;;;;1.13;0.60;;;;;;;;;;5044068;28;20453;-74
2021/03/18 12:49:32;;;;;;;11.33;1.17;;;;;;;;;;5039099;28;20841;-73
2021/03/18 12:51:58;;;;;;;0.80;0.70;;;;;;;;;;5039167;28;20517;-72
2021/03/18 12:54:23;;;;;;;1.17;0.73;;;;;;;;;;5046199;28;20502;-71
2021/03/18 12:56:49;;;;;;;0.80;0.50;;;;;;;;;;5042229;28;20385;-74
2021/03/18 12:59:15;;;;;;;0.80;0.60;;;;;;;;;;5046042;28;20918;-74
2021/03/18 13:01:42;;;;;;;0.83;0.80;;;;;;;;;;5045126;28;20424;-74
2021/03/18 13:04:08;;;;;;;1.27;0.53;;;;;;;;;;5045311;28;20429;-73
2021/03/18 13:06:34;;;;;;;1.03;0.80;;;;;;;;;;5048962;28;20807;-73
2021/03/18 13:09:00;;;;;;;0.80;0.80;;;;;;;;;;5043865;28;20760;-73
2021/03/18 13:11:26;;;;;;;0.87;0.70;;;;;;;;;;5046776;28;20391;-73
2021/03/18 13:13:52;;;;;;;0.70;0.50;;;;;;;;;;5026675;28;20481;-73
2021/03/18 13:16:19;;;;;;;1.10;0.60;;;;;;;;;;5028726;28;20398;-73
2021/03/18 13:18:45;;;;;;;0.80;0.60;;;;;;;;;;5042679;28;20473;-73
2021/03/18 13:21:11;;;;;;;0.70;0.50;;;;;;;;;;5035873;28;20382;-73
2021/03/18 13:23:37;;;;;;;2.00;0.80;;;;;;;;;;5040742;28;20416;-72
2021/03/18 13:26:03;;;;;;;0.73;0.60;;;;;;;;;;5046272;28;20404;-72
2021/03/18 13:28:30;;;;;;;2.30;0.60;;;;;;;;;;5047751;28;20391;-73
2021/03/18 13:30:56;;;;;;;0.80;0.50;;;;;;;;;;5044207;28;20408;-72
2021/03/18 13:33:22;;;;;;;0.90;0.67;;;;;;;;;;5042840;28;20852;-73
2021/03/18 13:35:48;;;;;;;0.70;0.50;;;;;;;;;;5045219;28;20503;-73
2021/03/18 13:38:14;;;;;;;0.70;0.50;;;;;;;;;;5039092;28;20966;-73
2021/03/18 13:40:42;;;;;;;1.83;1.27;;;;;;;;;;5034220;28;20421;-72
2021/03/18 13:43:08;;;;;;;0.70;0.50;;;;;;;;;;5043244;28;20443;-72
2021/03/18 13:45:35;;;;;;;0.80;0.70;;;;;;;;;;5052017;28;20414;-73
2021/03/18 13:48:02;;;;;;;0.70;0.50;;;;;;;;;;5023870;28;20493;-72
2021/03/18 13:50:28;;;;;;;0.70;0.50;;;;;;;;;;5046442;28;20440;-72
2021/03/18 13:52:54;;;;;;;1.03;0.80;;;;;;;;;;5044168;28;20460;-72
2021/03/18 13:55:20;;;;;;;0.80;0.60;;;;;;;;;;5047931;28;20430;-72
2021/03/18 13:57:46;;;;;;;0.83;0.50;;;;;;;;;;5031625;28;20438;-72
2021/03/18 14:00:12;;;;;;;0.70;0.60;;;;;;;;;;5048878;28;20413;-72
2021/03/18 14:02:40;;;;;;;1.10;0.67;;;;;;;;;;5047613;28;20432;-72
2021/03/18 14:05:06;;;;;;;1.43;0.90;;;;;;;;;;5050102;28;20421;-72
2021/03/18 14:07:33;;;;;;;1.73;0.90;;;;;;;;;;5044961;28;20470;-71
2021/03/18 14:09:59;;;;;;;0.80;0.60;;;;;;;;;;5045411;28;20409;-71
2021/03/18 14:12:25;;;;;;;1.00;0.60;;;;;;;;;;5026008;28;20434;-71
2021/03/18 14:14:51;;;;;;;0.70;0.50;;;;;;;;;;5041132;28;20419;-72
2021/03/18 14:17:17;;;;;;;0.70;0.40;;;;;;;;;;5038516;28;20689;-72
2021/03/18 14:19:43;;;;;;;0.83;0.63;;;;;;;;;;5027545;28;20468;-71
2021/03/18 14:22:09;;;;;;;0.70;0.50;;;;;;;;;;5063683;23;20547;-77
2021/03/18 14:24:35;;;;;;;0.70;0.43;;;;;;;;;;5076363;28;20403;-77
2021/03/18 14:27:01;;;;;;;1.30;0.67;;;;;;;;;;5091700;28;20955;-77
2021/03/18 14:29:27;;;;;;;0.80;0.80;;;;;;;;;;5091776;28;20417;-77
2021/03/18 14:31:54;;;;;;;0.70;0.63;;;;;;;;;;5093541;28;20815;-77
2021/03/18 14:34:20;;;;;;;3.47;0.83;;;;;;;;;;5093732;28;20399;-77
2021/03/18 14:36:46;;;;;;;0.70;0.40;;;;;;;;;;5092492;28;20440;-77
2021/03/18 14:39:13;;;;;;;1.07;0.70;;;;;;;;;;5093416;28;20399;-77
2021/03/18 14:41:39;;;;;;;3.03;1.80;;;;;;;;;;5093257;28;20454;-77
2021/03/18 14:44:05;;;;;;;0.70;0.50;;;;;;;;;;5093421;28;20947;-77
2021/03/18 14:46:31;;;;;;;1.00;0.60;;;;;;;;;;5075423;28;20815;-77